Time;durP1;ratioP1;P1;durP2;ratioP2;P2;SDS_P1;SDS_P2;PMS_P1;PMS_P2;Temp;Humidity;BMP_temperature;BMP_pressure;BME280_temperature;BME280_humidity;BME280_pressure;Samples;Min_cycle;Max_cycle;Signal;HPM_P1;HPM_P2
2021/04/16 00:02:35;;;;;;;9.53;3.07;;;;;;;4.28;90.23;101014.77;3377805;86;33185;-89
2021/04/16 00:07:36;;;;;;;8.05;3.15;;;;;;;4.27;90.31;101011.00;3374648;85;101618;-90
2021/04/16 00:12:36;;;;;;;8.63;3.13;;;;;;;4.29;90.31;101008.20;3421328;85;28498;-91
2021/04/16 00:17:37;;;;;;;9.93;3.02;;;;;;;4.31;90.31;101011.97;3414006;84;98325;-89
2021/04/16 00:22:38;;;;;;;7.40;3.00;;;;;;;4.29;90.42;101015.55;3413112;85;25978;-90
2021/04/16 00:27:39;;;;;;;10.60;3.30;;;;;;;4.30;90.24;101015.79;3411198;85;98319;-89
2021/04/16 00:32:40;;;;;;;9.77;3.10;;;;;;;4.32;90.16;101011.62;3417077;85;26349;-90
2021/04/16 00:37:41;;;;;;;10.17;3.20;;;;;;;4.31;90.19;101003.80;3412975;85;98397;-90
2021/04/16 00:42:41;;;;;;;9.10;3.10;;;;;;;4.35;90.17;101013.72;3421250;85;26345;-89
2021/04/16 00:47:42;;;;;;;9.10;3.17;;;;;;;4.27;90.34;101008.27;3437760;84;98353;-90
2021/04/16 00:52:43;;;;;;;10.07;2.87;;;;;;;4.20;90.44;101009.33;3456188;84;33496;-90
2021/04/16 00:57:44;;;;;;;10.93;3.20;;;;;;;4.20;90.42;101011.47;3393607;85;98455;-92
2021/04/16 01:02:44;;;;;;;9.67;3.40;;;;;;;4.20;90.38;101006.60;3394024;85;33104;-90
2021/04/16 01:07:46;;;;;;;10.47;4.20;;;;;;;4.20;90.48;101004.66;3415086;85;98344;-90
2021/04/16 01:12:47;;;;;;;9.27;2.90;;;;;;;4.19;90.53;100999.52;3422885;85;32996;-89
2021/04/16 01:17:47;;;;;;;11.50;3.27;;;;;;;4.18;90.56;101004.73;3408808;84;98869;-89
2021/04/16 01:23:35;;;;;;;9.77;3.27;;;;;;;4.21;90.64;101002.75;3420409;85;32220;-91
2021/04/16 01:28:36;;;;;;;;;;;;;;;4.26;90.89;100997.14;3412245;84;98565;-92
2021/04/16 01:33:37;;;;;;;10.87;2.73;;;;;;;4.27;90.90;101002.25;3457915;84;33009;-91
2021/04/16 01:38:41;;;;;;;9.13;3.07;;;;;;;4.28;90.54;101001.16;3396094;85;98272;-93
2021/04/16 01:43:46;;;;;;;12.37;3.10;;;;;;;4.33;90.47;101000.98;3451130;84;32995;-91
2021/04/16 01:48:52;;;;;;;8.97;3.53;;;;;;;4.33;90.43;101000.17;3354281;86;98631;-93
2021/04/16 01:54:09;;;;;;;8.70;3.42;;;;;;;4.40;90.41;100996.39;3479207;83;26013;-91
2021/04/16 01:59:21;;;;;;;7.73;2.97;;;;;;;4.43;90.36;100999.27;3467041;83;98312;-92
2021/04/16 02:04:23;;;;;;;8.63;3.90;;;;;;;4.47;90.12;100997.52;3412782;85;33019;-91
2021/04/16 02:09:29;;;;;;;8.53;3.60;;;;;;;4.53;90.01;100994.86;3472699;81;98435;-91
2021/04/16 02:14:31;;;;;;;9.20;3.30;;;;;;;4.58;89.90;100988.45;3407171;85;26018;-87
2021/04/16 02:19:33;;;;;;;12.20;4.65;;;;;;;4.63;89.82;100987.71;3477218;83;98342;-92
2021/04/16 02:24:37;;;;;;;10.73;3.63;;;;;;;4.64;89.72;100981.70;3479217;83;33920;-92
2021/04/16 02:29:38;;;;;;;10.20;3.57;;;;;;;4.61;89.61;100994.61;3474925;81;98495;-91
2021/04/16 02:34:39;;;;;;;8.40;3.73;;;;;;;4.54;89.50;100987.49;3479407;83;33548;-93
2021/04/16 02:39:40;;;;;;;8.63;4.20;;;;;;;4.55;89.56;100989.09;3477400;83;98112;-93
2021/04/16 02:44:42;;;;;;;6.97;3.13;;;;;;;4.48;89.45;100985.48;3491542;82;33057;-90
2021/04/16 02:49:44;;;;;;;8.97;3.97;;;;;;;4.49;89.56;100986.30;3498487;82;97636;-91
2021/04/16 02:54:45;;;;;;;13.10;4.63;;;;;;;4.51;89.46;100993.58;3459496;84;33560;-93
2021/04/16 02:59:46;;;;;;;11.23;3.70;;;;;;;4.43;89.52;100989.73;3388493;85;98385;-93
2021/04/16 03:04:46;;;;;;;10.40;3.77;;;;;;;4.40;89.55;100978.13;3451839;83;32986;-90
2021/04/16 03:09:47;;;;;;;10.57;3.90;;;;;;;4.35;89.54;100985.11;3446791;80;97982;-91
2021/04/16 03:14:48;;;;;;;9.53;3.57;;;;;;;4.28;89.63;100990.80;3407249;85;32264;-89
2021/04/16 03:19:48;;;;;;;9.07;4.03;;;;;;;4.24;89.71;100987.11;3390329;85;98134;-92
2021/04/16 03:24:49;;;;;;;9.90;3.27;;;;;;;4.26;89.85;100989.75;3395086;85;31830;-91
2021/04/16 03:29:50;;;;;;;10.53;4.28;;;;;;;4.23;89.90;100989.59;3380705;85;98141;-91
2021/04/16 03:34:50;;;;;;;10.27;4.23;;;;;;;4.20;89.91;100992.40;3401483;85;31832;-91
2021/04/16 03:39:52;;;;;;;9.13;3.70;;;;;;;4.19;90.07;100992.72;3388202;85;98258;-92
2021/04/16 03:44:52;;;;;;;8.33;3.87;;;;;;;4.16;90.03;100993.37;3396114;85;32305;-92
2021/04/16 03:49:53;;;;;;;12.63;3.77;;;;;;;4.14;90.06;100994.27;3375328;85;98198;-91
2021/04/16 03:54:55;;;;;;;8.60;3.67;;;;;;;4.13;90.22;100994.81;3500248;83;29347;-88
2021/04/16 03:59:57;;;;;;;9.47;2.97;;;;;;;4.10;90.07;100989.99;3488729;80;98164;-90
2021/04/16 04:04:57;;;;;;;12.37;3.40;;;;;;;4.07;90.21;100990.65;3501581;83;34970;-93
2021/04/16 04:09:58;;;;;;;6.70;2.97;;;;;;;4.07;90.35;100989.28;3496495;82;98359;-92
2021/04/16 04:15:00;;;;;;;12.43;3.53;;;;;;;4.11;90.37;100991.62;3501356;83;34983;-91
2021/04/16 04:20:02;;;;;;;8.20;3.17;;;;;;;4.17;90.41;100996.33;3496103;81;98284;-92
2021/04/16 04:25:04;;;;;;;12.50;3.63;;;;;;;4.23;90.35;101001.86;3498223;83;35562;-93
2021/04/16 04:30:06;;;;;;;9.70;3.37;;;;;;;4.28;90.30;101005.78;3494468;82;98267;-91
2021/04/16 04:35:09;;;;;;;11.57;3.57;;;;;;;4.27;90.20;100999.52;3499596;83;35640;-91
2021/04/16 04:40:13;;;;;;;10.30;3.12;;;;;;;4.27;90.03;100996.80;3493078;81;97974;-90
2021/04/16 04:45:15;;;;;;;11.07;4.37;;;;;;;4.25;90.30;101009.16;3502525;83;36100;-91
2021/04/16 04:50:17;;;;;;;9.07;2.93;;;;;;;4.22;90.17;100999.71;3518031;80;98362;-92
2021/04/16 04:55:23;;;;;;;8.23;3.37;;;;;;;4.25;90.18;101008.59;3513819;82;35028;-93
2021/04/16 05:00:25;;;;;;;11.80;3.70;;;;;;;4.22;90.12;100998.35;3511292;80;98336;-93
2021/04/16 05:05:27;;;;;;;12.37;4.07;;;;;;;4.21;90.32;101004.11;3456340;84;34953;-92
2021/04/16 05:10:28;;;;;;;11.67;3.13;;;;;;;4.23;90.27;100994.50;3451075;84;98570;-91
2021/04/16 05:15:29;;;;;;;10.53;3.57;;;;;;;4.23;90.40;101001.31;3405518;85;35082;-91
2021/04/16 05:20:29;;;;;;;13.50;3.40;;;;;;;4.23;90.40;101001.31;3402265;85;98687;-91
2021/04/16 05:25:30;;;;;;;12.93;3.27;;;;;;;4.24;90.43;101005.63;3400748;85;35561;-92
2021/04/16 05:30:31;;;;;;;14.70;3.80;;;;;;;4.22;90.72;101005.70;3403579;85;98319;-92
2021/04/16 05:35:32;;;;;;;11.27;2.70;;;;;;;4.20;90.71;101006.02;3452496;84;34979;-93
2021/04/16 05:40:32;;;;;;;8.20;2.67;;;;;;;4.26;90.74;101011.55;3446909;84;98618;-92
2021/04/16 05:45:33;;;;;;;9.03;2.80;;;;;;;4.30;90.75;101013.88;3444254;84;32705;-94
2021/04/16 05:50:34;;;;;;;10.90;3.60;;;;;;;4.34;90.85;101021.66;3407787;83;98407;-94
2021/04/16 05:55:35;;;;;;;6.90;3.23;;;;;;;4.37;90.86;101025.09;3417046;85;32716;-92
2021/04/16 06:00:36;;;;;;;8.73;2.67;;;;;;;4.38;90.68;101017.73;3416849;85;98326;-92
2021/04/16 06:05:37;;;;;;;9.30;3.00;;;;;;;4.43;90.90;101017.56;3422077;85;32730;-93
2021/04/16 06:10:38;;;;;;;10.57;3.83;;;;;;;4.50;91.04;101005.06;3405880;85;98325;-92
2021/04/16 06:15:39;;;;;;;15.23;4.53;;;;;;;4.53;90.88;101013.94;3415915;85;33601;-93
2021/04/16 06:20:39;;;;;;;13.17;4.60;;;;;;;4.57;91.11;101015.45;3408302;85;98010;-92
2021/04/16 06:25:40;;;;;;;10.00;4.28;;;;;;;4.63;91.17;101014.97;3416328;85;34177;-93
2021/04/16 06:30:44;;;;;;;12.77;4.10;;;;;;;4.66;90.87;101007.52;3416746;84;98151;-94
2021/04/16 06:35:52;;;;;;;11.13;4.23;;;;;;;4.76;90.76;101005.02;3478451;83;27506;-93
2021/04/16 06:40:55;;;;;;;9.97;3.40;;;;;;;4.81;90.69;101013.80;3468075;83;29564;-93
2021/04/16 06:45:59;;;;;;;13.97;3.37;;;;;;;4.86;90.52;101017.73;3483772;83;98359;-93
2021/04/16 06:51:01;;;;;;;12.70;4.10;;;;;;;4.92;90.31;101008.83;3501069;83;27476;-94
2021/04/16 06:56:07;;;;;;;10.67;3.93;;;;;;;5.00;90.39;101020.27;3488397;83;98254;-93
2021/04/16 07:01:44;;;;;;;17.47;5.13;;;;;;;5.02;90.13;101018.03;3489976;83;27551;-92
2021/04/16 07:06:45;;;;;;;9.70;3.75;;;;;;;5.07;90.10;101024.67;3490058;83;98672;-92
2021/04/16 07:12:13;;;;;;;11.63;3.87;;;;;;;5.09;90.06;101015.59;3492022;83;26449;-92
2021/04/16 07:17:18;;;;;;;9.13;3.80;;;;;;;5.12;90.10;101021.19;3480600;83;98606;-91
2021/04/16 07:22:30;;;;;;;13.50;3.87;;;;;;;5.14;90.25;101024.96;3486835;83;27467;-91
2021/04/16 07:27:48;;;;;;;10.70;3.77;;;;;;;5.18;90.32;101023.19;3462303;83;98478;-92
2021/04/16 07:32:50;;;;;;;8.37;3.47;;;;;;;5.23;90.22;101022.44;3484617;83;27480;-93
2021/04/16 07:38:15;;;;;;;12.77;3.43;;;;;;;5.33;90.26;101022.63;3487048;83;97838;-92
2021/04/16 07:43:44;;;;;;;10.50;3.20;;;;;;;5.42;90.09;101032.41;3477790;83;27455;-93
2021/04/16 07:48:45;;;;;;;6.93;3.10;;;;;;;5.50;89.98;101032.10;3497433;82;98424;-93
2021/04/16 07:53:49;;;;;;;9.63;3.03;;;;;;;5.46;89.76;101036.64;3519233;82;26031;-92
2021/04/16 07:59:05;;;;;;;10.35;3.67;;;;;;;5.45;89.71;101035.05;3507893;82;98584;-89
2021/04/16 08:04:23;;;;;;;8.47;3.63;;;;;;;5.48;89.73;101034.38;3511688;82;28540;-90
2021/04/16 08:09:30;;;;;;;11.57;3.90;;;;;;;5.49;89.62;101040.87;3507936;82;98523;-90
2021/04/16 08:14:35;;;;;;;7.87;3.23;;;;;;;5.48;89.52;101028.36;3511476;82;27732;-91
2021/04/16 08:19:38;;;;;;;10.57;4.17;;;;;;;5.49;89.55;101029.95;3451072;84;98505;-92
2021/04/16 08:25:07;;;;;;;8.13;3.30;;;;;;;5.44;89.45;101043.78;3432350;84;27569;-91
2021/04/16 08:30:46;;;;;;;8.85;3.30;;;;;;;5.39;89.48;101043.16;3514671;82;98059;-90
2021/04/16 08:35:59;;;;;;;11.10;3.97;;;;;;;5.37;89.39;101049.52;3520401;82;28756;-91
2021/04/16 08:41:03;;;;;;;8.80;3.70;;;;;;;5.30;89.62;101047.86;3517727;82;27689;-90
2021/04/16 08:46:18;;;;;;;14.30;3.80;;;;;;;5.36;89.86;101052.01;3513629;82;98340;-91
2021/04/16 08:51:25;;;;;;;10.70;3.43;;;;;;;5.37;89.81;101053.61;3419463;84;27538;-89
2021/04/16 08:56:31;;;;;;;11.85;3.98;;;;;;;5.34;89.47;101057.01;3479239;83;98501;-90
2021/04/16 09:01:38;;;;;;;7.45;3.20;;;;;;;5.34;89.75;101060.52;3482123;83;27495;-89
2021/04/16 09:06:47;;;;;;;8.33;2.60;;;;;;;5.39;89.62;101060.89;3473032;83;98294;-92
2021/04/16 09:11:52;;;;;;;7.13;3.50;;;;;;;5.38;89.33;101062.03;3471114;83;28373;-90
2021/04/16 09:16:59;;;;;;;9.77;3.40;;;;;;;5.42;89.25;101060.25;3476549;83;98336;-91
2021/04/16 09:22:11;;;;;;;7.37;2.90;;;;;;;5.46;89.33;101061.98;3490217;83;27494;-89
2021/04/16 09:27:35;;;;;;;7.33;2.87;;;;;;;5.51;89.16;101063.17;3468500;83;98410;-88
2021/04/16 09:32:47;;;;;;;16.97;7.53;;;;;;;5.59;89.29;101061.55;3483386;83;27548;-88
2021/04/16 09:37:53;;;;;;;20.90;8.93;;;;;;;5.62;89.20;101059.53;3473489;83;98461;-92
2021/04/16 09:43:21;;;;;;;10.23;5.10;;;;;;;5.65;89.16;101060.22;3418306;85;28175;-90
2021/04/16 09:48:44;;;;;;;7.65;2.58;;;;;;;5.72;89.36;101057.80;3479483;82;98574;-89
2021/04/16 09:54:11;;;;;;;8.60;3.33;;;;;;;5.82;89.44;101053.34;3408686;85;28517;-88
2021/04/16 09:59:31;;;;;;;9.63;3.95;;;;;;;5.86;89.11;101054.28;3482438;82;98160;-89
2021/04/16 10:05:12;;;;;;;9.07;3.33;;;;;;;6.00;89.57;101048.81;3517796;82;27471;-89
2021/04/16 10:10:21;;;;;;;8.30;3.73;;;;;;;6.10;89.38;101040.78;3509423;82;98191;-91
2021/04/16 10:15:26;;;;;;;11.90;3.83;;;;;;;6.19;89.09;101042.34;3455715;84;28504;-89
2021/04/16 10:20:31;;;;;;;12.20;4.40;;;;;;;6.23;88.75;101044.62;3382969;84;98431;-89
2021/04/16 10:54:41;;;;;;;10.53;3.67;;;;;;;6.24;88.39;101030.40;3450139;84;26126;-89
2021/04/16 11:06:05;;;;;;;11.87;3.43;;;;;;;6.28;87.88;101033.48;3391328;85;26272;-91
2021/04/16 12:40:30;;;;;;;11.83;4.28;;;;;;;6.42;89.36;101004.51;3382843;85;98336;-87
2021/04/16 12:45:31;;;;;;;13.20;4.33;;;;;;;6.53;89.04;101009.24;3396519;85;27641;-88
2021/04/16 12:50:33;;;;;;;10.83;3.93;;;;;;;6.63;88.62;101002.55;3387971;84;98299;-85
2021/04/16 12:55:34;;;;;;;17.07;6.73;;;;;;;6.65;88.67;100995.61;3443146;84;27733;-86
2021/04/16 13:00:42;;;;;;;12.77;3.90;;;;;;;6.65;88.26;100992.09;3433487;84;98266;-88
2021/04/16 13:05:46;;;;;;;10.73;3.93;;;;;;;6.67;88.48;100991.17;3444196;84;28298;-87
2021/04/16 13:10:47;;;;;;;10.33;3.77;;;;;;;6.67;88.48;100987.88;3435262;83;98211;-88
2021/04/16 13:15:48;;;;;;;13.80;4.50;;;;;;;6.76;88.56;100989.16;3398109;85;26080;-88
2021/04/16 13:20:50;;;;;;;15.73;4.30;;;;;;;6.79;88.32;100989.28;3427550;84;26621;-87
2021/04/16 13:25:51;;;;;;;17.43;5.40;;;;;;;6.77;88.30;100979.23;3385809;85;98241;-88
2021/04/16 13:30:52;;;;;;;13.73;5.53;;;;;;;6.75;88.25;100975.23;3390327;85;26274;-87
2021/04/16 13:35:54;;;;;;;16.43;5.73;;;;;;;6.78;88.24;100970.47;3443671;84;98357;-87
2021/04/16 13:40:59;;;;;;;14.20;5.40;;;;;;;6.78;88.30;100974.56;3395602;85;27336;-86
2021/04/16 13:46:06;;;;;;;14.20;5.40;;;;;;;6.82;88.33;100972.77;3388204;85;101274;-88
2021/04/16 13:51:07;;;;;;;13.73;5.80;;;;;;;6.85;88.37;100964.67;3399005;85;28358;-88
2021/04/16 13:56:08;;;;;;;12.70;4.83;;;;;;;6.86;88.34;100962.72;3476553;83;98814;-86
2021/04/16 14:01:11;;;;;;;12.50;5.20;;;;;;;6.91;88.67;100957.84;3480435;83;26633;-87
2021/04/16 14:06:23;;;;;;;10.40;3.85;;;;;;;7.01;88.65;100960.70;3480310;83;98485;-86
2021/04/16 14:11:24;;;;;;;11.00;4.10;;;;;;;7.11;88.47;100952.05;3488404;83;28247;-84
2021/04/16 14:16:31;;;;;;;10.87;4.27;;;;;;;7.19;88.34;100948.42;3480024;83;98432;-87
2021/04/16 14:21:39;;;;;;;9.50;4.07;;;;;;;7.27;88.15;100941.46;3484844;83;27673;-86
2021/04/16 14:26:43;;;;;;;10.63;3.40;;;;;;;7.31;87.86;100946.45;3479488;83;97935;-86
2021/04/16 14:31:45;;;;;;;9.93;3.37;;;;;;;7.35;87.37;100940.53;3475937;83;28393;-85
2021/04/16 14:36:46;;;;;;;12.97;4.10;;;;;;;7.37;87.33;100939.61;3413738;84;98430;-84
2021/04/16 14:41:47;;;;;;;10.47;4.17;;;;;;;7.42;87.07;100935.86;3468109;84;26894;-86
2021/04/16 14:46:49;;;;;;;11.83;4.33;;;;;;;7.39;86.57;100940.64;3479309;83;98564;-85
2021/04/16 14:51:50;;;;;;;14.53;5.43;;;;;;;7.40;86.77;100930.72;3415879;85;26265;-84
2021/04/16 14:56:51;;;;;;;18.67;6.20;;;;;;;7.50;86.68;100923.97;3470319;83;98489;-85
2021/04/16 15:01:52;;;;;;;19.23;7.67;;;;;;;7.46;86.41;100938.12;3415139;85;26357;-83
2021/04/16 15:06:58;;;;;;;12.63;5.83;;;;;;;7.48;86.35;100936.63;3471741;83;98684;-84
2021/04/16 15:11:59;;;;;;;15.83;6.27;;;;;;;7.48;85.99;100933.89;3483853;83;32984;-85
2021/04/16 15:17:00;;;;;;;13.20;6.20;;;;;;;7.46;85.89;100935.37;3471613;83;98417;-85
2021/04/16 15:22:23;;;;;;;17.70;6.37;;;;;;;7.46;85.72;100933.45;3481171;83;26307;-84
2021/04/16 15:27:34;;;;;;;11.65;4.58;;;;;;;7.47;85.51;100935.63;3474802;83;98390;-83
2021/04/16 15:32:43;;;;;;;13.13;5.30;;;;;;;7.47;85.69;100928.20;3481533;83;28412;-84
2021/04/16 15:48:39;;;;;;;11.97;5.55;;;;;;;7.31;85.55;100916.34;3412795;85;98571;-84
2021/04/16 15:53:39;;;;;;;14.00;6.30;;;;;;;7.25;85.47;100905.98;3509118;82;27487;-85
2021/04/16 15:58:40;;;;;;;13.47;5.00;;;;;;;7.22;85.50;100908.84;3452437;84;98124;-84
2021/04/16 16:03:41;;;;;;;13.30;6.07;;;;;;;7.25;85.72;100900.52;3397795;85;25906;-85
2021/04/16 16:08:42;;;;;;;16.10;5.77;;;;;;;7.25;85.60;100905.98;3383218;84;98603;-83
2021/04/16 16:13:43;;;;;;;12.87;6.03;;;;;;;7.28;85.47;100909.39;3454303;84;26106;-83
2021/04/16 16:18:45;;;;;;;16.77;7.00;;;;;;;7.24;85.46;100905.17;3448080;84;98631;-84
2021/04/16 16:23:50;;;;;;;18.27;7.08;;;;;;;7.26;85.65;100904.84;3457812;84;26278;-84
2021/04/16 16:28:54;;;;;;;21.65;6.40;;;;;;;7.24;85.54;100907.10;3445817;84;98599;-85
2021/04/16 16:33:54;;;;;;;14.60;5.40;;;;;;;7.21;85.71;100911.32;3442332;84;27713;-84
2021/04/16 16:38:55;;;;;;;12.50;5.50;;;;;;;7.19;85.72;100914.98;3444117;84;98613;-85
2021/04/16 16:43:56;;;;;;;19.17;5.97;;;;;;;7.17;85.70;100915.09;3456630;84;25908;-84
2021/04/16 16:48:57;;;;;;;12.90;5.73;;;;;;;7.16;85.63;100910.77;3441755;84;98659;-85
2021/04/16 16:53:59;;;;;;;18.97;8.90;;;;;;;7.10;85.62;100914.87;3420047;84;26569;-85
2021/04/16 16:59:01;;;;;;;11.77;5.73;;;;;;;7.11;85.95;100917.28;3466093;83;98489;-84
2021/04/16 17:04:04;;;;;;;12.77;6.77;;;;;;;7.09;86.07;100919.54;3478364;83;26742;-85
2021/04/16 17:09:06;;;;;;;15.78;7.75;;;;;;;7.06;86.20;100911.22;3410890;83;98167;-84
2021/04/16 17:14:18;;;;;;;16.10;5.23;;;;;;;7.03;86.48;100917.39;3417501;85;27485;-84
2021/04/16 17:19:19;;;;;;;12.83;3.93;;;;;;;6.98;86.37;100916.24;3472467;83;98559;-85
2021/04/16 17:24:20;;;;;;;16.67;5.27;;;;;;;6.88;85.81;100929.77;3402468;85;26292;-85
2021/04/16 17:29:25;;;;;;;18.30;6.10;;;;;;;6.72;85.56;100932.94;3472542;83;98424;-84
2021/04/16 17:34:27;;;;;;;13.03;4.50;;;;;;;6.59;85.64;100939.53;3474037;83;28212;-83
2021/04/16 17:39:29;;;;;;;17.07;7.43;;;;;;;6.49;85.80;100942.69;3409696;85;98307;-84
2021/04/16 17:44:33;;;;;;;14.40;5.43;;;;;;;6.44;85.96;100945.63;3481378;83;27528;-83
2021/04/16 17:49:34;;;;;;;12.60;4.63;;;;;;;6.36;85.97;100945.71;3471970;83;98815;-85
2021/04/16 17:54:35;;;;;;;15.80;6.03;;;;;;;6.29;86.28;100949.01;3420130;85;26261;-82
2021/04/16 17:59:38;;;;;;;15.90;5.93;;;;;;;6.24;86.39;100956.05;3410044;85;98340;-85
2021/04/16 18:04:38;;;;;;;10.47;4.60;;;;;;;6.18;86.54;100957.94;3477333;83;27537;-86
2021/04/16 18:09:39;;;;;;;16.03;6.50;;;;;;;6.07;86.75;100955.39;3470979;83;98274;-85
2021/04/16 18:14:40;;;;;;;13.37;5.40;;;;;;;6.02;86.97;100958.31;3480523;83;26508;-84
2021/04/16 18:19:41;;;;;;;13.05;5.50;;;;;;;5.94;87.15;100964.08;3405466;85;98084;-84
2021/04/16 18:24:42;;;;;;;11.77;5.17;;;;;;;5.91;87.21;100970.22;3479131;83;25948;-86
2021/04/16 18:29:44;;;;;;;15.00;6.63;;;;;;;5.89;87.30;100972.47;3466040;83;98041;-82
2021/04/16 18:34:46;;;;;;;16.67;5.47;;;;;;;5.90;87.38;100969.97;3480583;83;26449;-84
2021/04/16 18:39:54;;;;;;;11.30;4.93;;;;;;;5.82;87.44;100974.12;3476408;83;98254;-84
2021/04/16 18:44:56;;;;;;;12.87;5.33;;;;;;;5.77;87.52;100971.55;3461374;83;27827;-84
2021/04/16 18:49:57;;;;;;;11.90;4.78;;;;;;;5.72;87.71;100978.61;3476973;83;98099;-85
2021/04/16 18:55:03;;;;;;;10.83;4.50;;;;;;;5.67;87.80;100974.70;3507750;82;26482;-86
2021/04/16 19:00:09;;;;;;;12.33;4.03;;;;;;;5.62;88.01;100981.72;3492539;82;98254;-85
2021/04/16 19:05:11;;;;;;;;;;;;;;;5.55;88.21;100989.60;3522847;82;28697;-85
2021/04/16 19:10:15;;;;;;;11.20;3.60;;;;;;;5.46;88.75;100985.55;3514524;82;84199;-86
2021/04/16 19:15:24;;;;;;;16.07;5.30;;;;;;;5.39;88.52;100994.84;3455311;84;28413;-87
2021/04/16 19:20:29;;;;;;;14.93;5.83;;;;;;;5.34;88.61;100991.50;3443401;84;97990;-87
2021/04/16 19:25:35;;;;;;;18.90;6.85;;;;;;;5.27;88.75;100992.00;3456057;84;28399;-86
2021/04/16 19:30:44;;;;;;;14.93;6.40;;;;;;;5.27;89.03;100985.73;3444918;82;98286;-84
2021/04/16 19:35:45;;;;;;;13.37;5.43;;;;;;;5.24;89.09;100985.05;3451365;84;27504;-84
2021/04/16 19:40:57;;;;;;;16.27;6.23;;;;;;;5.24;89.16;100980.37;3445631;82;98006;-85
2021/04/16 19:46:01;;;;;;;14.07;5.37;;;;;;;5.22;89.33;100975.81;3444875;84;98534;-87
2021/04/16 20:17:02;;;;;;;11.73;4.67;;;;;;;4.99;90.32;100953.20;3426095;84;98225;-89
2021/04/16 20:22:07;;;;;;;13.33;5.17;;;;;;;4.98;90.48;100954.33;3441303;84;28337;-89
2021/04/16 20:27:16;;;;;;;11.40;4.47;;;;;;;4.98;90.59;100953.78;3454608;81;97498;-89
2021/04/16 20:32:32;;;;;;;14.67;4.97;;;;;;;4.97;90.66;100963.65;3433261;84;27555;-90
2021/04/16 20:37:34;;;;;;;14.75;4.80;;;;;;;5.00;90.68;100961.61;3424493;84;98925;-87
2021/04/16 20:42:35;;;;;;;12.17;4.60;;;;;;;5.02;90.59;100962.89;3438223;84;27509;-89
2021/04/16 20:47:36;;;;;;;11.23;4.83;;;;;;;5.02;90.60;100964.25;3423700;84;98505;-89
2021/04/16 20:52:40;;;;;;;13.63;4.60;;;;;;;5.00;90.68;100965.70;3430112;84;26438;-88
2021/04/16 20:57:42;;;;;;;12.57;4.97;;;;;;;4.97;90.83;100963.65;3428409;84;98493;-90
2021/04/16 21:03:05;;;;;;;14.20;4.33;;;;;;;4.95;91.00;100962.60;3416465;84;28485;-88
2021/04/16 21:08:17;;;;;;;12.70;4.92;;;;;;;4.94;91.14;100973.83;3422900;84;98501;-85
2021/04/16 21:13:21;;;;;;;15.47;5.40;;;;;;;4.95;91.11;100960.42;3430670;84;26981;-87
2021/04/16 21:18:33;;;;;;;14.80;5.40;;;;;;;4.97;91.05;100961.70;3421756;84;99008;-86
2021/04/16 21:23:39;;;;;;;12.20;5.23;;;;;;;4.98;91.08;100963.88;3427239;84;28218;-86
2021/04/16 21:28:40;;;;;;;11.35;5.50;;;;;;;4.99;91.06;100961.38;3484851;83;98299;-88
2021/04/16 21:33:43;;;;;;;14.20;5.70;;;;;;;5.01;91.16;100974.12;3486457;83;26148;-87
2021/04/16 21:38:46;;;;;;;12.70;5.57;;;;;;;5.02;91.03;100965.61;3498132;82;98167;-87
2021/04/16 21:43:49;;;;;;;15.00;6.70;;;;;;;4.98;91.11;100961.16;3433868;84;27732;-86
2021/04/16 21:49:15;;;;;;;14.67;6.27;;;;;;;4.99;91.19;100970.38;3495209;83;98960;-86
2021/04/16 21:54:27;;;;;;;18.00;5.40;;;;;;;5.04;91.10;100969.39;3485752;83;27589;-86
2021/04/16 21:59:29;;;;;;;16.00;6.08;;;;;;;5.05;90.96;100973.16;3477804;83;97995;-86
2021/04/16 22:04:39;;;;;;;14.70;6.10;;;;;;;5.02;91.06;100973.02;3482450;83;27504;-86
2021/04/16 22:09:55;;;;;;;13.67;6.00;;;;;;;5.02;91.08;100974.38;3452208;83;98109;-87
2021/04/16 22:15:01;;;;;;;16.27;5.73;;;;;;;5.05;91.12;100969.62;3436627;83;27749;-86
2021/04/16 22:20:04;;;;;;;17.48;6.55;;;;;;;5.03;90.97;100976.76;3463294;83;98668;-86
2021/04/16 22:25:35;;;;;;;14.47;5.73;;;;;;;5.03;91.01;100972.66;3479619;83;27637;-86
2021/04/16 22:30:47;;;;;;;16.07;6.30;;;;;;;5.03;90.99;100975.98;3408839;85;98748;-85
2021/04/16 22:35:56;;;;;;;14.13;5.73;;;;;;;5.02;90.99;100971.08;3422238;85;98174;-85
2021/04/16 22:40:59;;;;;;;17.77;7.10;;;;;;;5.01;90.95;100975.48;3485240;83;28424;-85
2021/04/16 22:46:21;;;;;;;16.47;7.30;;;;;;;4.97;91.04;100969.88;3476620;83;98540;-85
2021/04/16 22:51:27;;;;;;;13.67;5.73;;;;;;;4.98;91.14;100966.61;3484683;82;27433;-85
2021/04/16 22:56:39;;;;;;;14.65;5.95;;;;;;;4.98;91.11;100967.42;3479744;82;98581;-85
2021/04/16 23:01:45;;;;;;;16.63;6.10;;;;;;;5.02;91.09;100971.66;3501254;83;28442;-86
2021/04/16 23:07:07;;;;;;;16.60;6.50;;;;;;;5.00;90.99;100968.44;3496731;83;100565;-86
2021/04/16 23:12:20;;;;;;;17.13;6.93;;;;;;;5.04;90.89;100963.38;3484717;83;27558;-86
2021/04/16 23:17:21;;;;;;;12.85;6.50;;;;;;;5.04;90.81;100958.48;3496809;83;98376;-86
2021/04/16 23:22:46;;;;;;;15.33;6.60;;;;;;;5.01;90.87;100959.12;3484062;83;26500;-84
2021/04/16 23:27:55;;;;;;;15.13;6.53;;;;;;;5.02;90.96;100960.16;3496364;82;98144;-86
2021/04/16 23:33:51;;;;;;;13.93;6.07;;;;;;;4.98;91.02;100952.41;3504859;82;27515;-85
2021/04/16 23:38:54;;;;;;;15.33;6.60;;;;;;;4.96;90.93;100953.88;3491115;82;98858;-85
2021/04/16 23:43:55;;;;;;;16.07;6.60;;;;;;;4.96;91.08;100956.59;3499232;83;28234;-86
2021/04/16 23:48:56;;;;;;;12.43;5.57;;;;;;;4.94;91.01;100954.19;3496445;80;98495;-86
2021/04/16 23:53:57;;;;;;;16.53;7.13;;;;;;;4.97;90.96;100952.16;3496478;82;26399;-86
2021/04/16 23:58:58;;;;;;;14.50;6.33;;;;;;;4.97;90.97;100945.34;3470609;80;98484;-87
